sensor_id;sensor_type;location;lat;lon;timestamp;temperature;humidity
55331;DHT22;58851;42.984;20.336;2023-02-01T00:00:34;26.30;6451.20
55331;DHT22;58851;42.984;20.336;2023-02-01T00:03:00;26.30;6451.20
55331;DHT22;58851;42.984;20.336;2023-02-01T00:05:26;26.30;6451.20
55331;DHT22;58851;42.984;20.336;2023-02-01T00:07:51;26.40;6451.20
55331;DHT22;58851;42.984;20.336;2023-02-01T00:10:17;26.40;6451.20
55331;DHT22;58851;42.984;20.336;2023-02-01T00:12:43;26.40;6451.20
55331;DHT22;58851;42.984;20.336;2023-02-01T00:15:09;26.40;6451.20
55331;DHT22;58851;42.984;20.336;2023-02-01T00:17:35;26.30;6451.20
55331;DHT22;58851;42.984;20.336;2023-02-01T00:20:01;26.30;6451.20
55331;DHT22;58851;42.984;20.336;2023-02-01T00:22:27;26.30;6451.20
55331;DHT22;58851;42.984;20.336;2023-02-01T00:24:53;26.30;6451.20
55331;DHT22;58851;42.984;20.336;2023-02-01T00:27:18;26.30;6451.20
55331;DHT22;58851;42.984;20.336;2023-02-01T00:29:46;26.20;6451.20
55331;DHT22;58851;42.984;20.336;2023-02-01T00:32:12;26.20;6451.20
55331;DHT22;58851;42.984;20.336;2023-02-01T00:34:38;26.10;6451.20
55331;DHT22;58851;42.984;20.336;2023-02-01T00:37:04;26.00;6451.20
55331;DHT22;58851;42.984;20.336;2023-02-01T00:39:29;25.80;6451.20
55331;DHT22;58851;42.984;20.336;2023-02-01T00:41:55;25.60;6451.20
55331;DHT22;58851;42.984;20.336;2023-02-01T00:44:21;25.60;6451.20
55331;DHT22;58851;42.984;20.336;2023-02-01T00:46:47;25.60;6451.20
55331;DHT22;58851;42.984;20.336;2023-02-01T00:49:12;0.80;6451.20
55331;DHT22;58851;42.984;20.336;2023-02-01T00:51:38;0.80;6451.20
55331;DHT22;58851;42.984;20.336;2023-02-01T00:54:04;0.80;6451.20
55331;DHT22;58851;42.984;20.336;2023-02-01T00:56:30;0.70;6451.20
55331;DHT22;58851;42.984;20.336;2023-02-01T00:58:56;0.50;128.00
55331;DHT22;58851;42.984;20.336;2023-02-01T01:01:26;0.40;358.40
55331;DHT22;58851;42.984;20.336;2023-02-01T01:03:59;0.20;512.00
55331;DHT22;58851;42.984;20.336;2023-02-01T01:06:34;0.00;6451.20
55331;DHT22;58851;42.984;20.336;2023-02-01T01:09:04;12.90;6451.20
55331;DHT22;58851;42.984;20.336;2023-02-01T01:11:33;12.90;6451.20
55331;DHT22;58851;42.984;20.336;2023-02-01T01:14:00;12.90;6451.20
55331;DHT22;58851;42.984;20.336;2023-02-01T01:16:27;0.00;6451.20
55331;DHT22;58851;42.984;20.336;2023-02-01T01:18:53;0.00;6451.20
55331;DHT22;58851;42.984;20.336;2023-02-01T01:21:20;0.00;6451.20
55331;DHT22;58851;42.984;20.336;2023-02-01T01:23:47;0.00;6451.20
55331;DHT22;58851;42.984;20.336;2023-02-01T01:26:19;12.90;6451.20
55331;DHT22;58851;42.984;20.336;2023-02-01T01:28:46;12.90;6451.20
55331;DHT22;58851;42.984;20.336;2023-02-01T01:31:13;12.90;6451.20
55331;DHT22;58851;42.984;20.336;2023-02-01T01:33:40;12.90;6451.20
55331;DHT22;58851;42.984;20.336;2023-02-01T01:36:07;12.90;6451.20
55331;DHT22;58851;42.984;20.336;2023-02-01T01:38:37;12.90;6451.20
55331;DHT22;58851;42.984;20.336;2023-02-01T01:41:03;12.90;6451.20
55331;DHT22;58851;42.984;20.336;2023-02-01T01:46:16;0.10;6451.20
55331;DHT22;58851;42.984;20.336;2023-02-01T01:48:42;0.10;6451.20
55331;DHT22;58851;42.984;20.336;2023-02-01T01:51:10;0.10;6451.20
55331;DHT22;58851;42.984;20.336;2023-02-01T01:53:43;0.10;6451.20
55331;DHT22;58851;42.984;20.336;2023-02-01T01:56:11;0.10;6451.20
55331;DHT22;58851;42.984;20.336;2023-02-01T01:58:37;0.10;6451.20
55331;DHT22;58851;42.984;20.336;2023-02-01T02:01:03;0.10;6451.20
55331;DHT22;58851;42.984;20.336;2023-02-01T02:03:36;0.10;6451.20
55331;DHT22;58851;42.984;20.336;2023-02-01T02:06:06;12.90;6451.20
55331;DHT22;58851;42.984;20.336;2023-02-01T02:08:35;0.00;6451.20
55331;DHT22;58851;42.984;20.336;2023-02-01T02:11:01;0.00;6451.20
55331;DHT22;58851;42.984;20.336;2023-02-01T02:13:41;0.00;6451.20
55331;DHT22;58851;42.984;20.336;2023-02-01T02:16:14;0.10;6451.20
55331;DHT22;58851;42.984;20.336;2023-02-01T02:24:23;0.10;6451.20
55331;DHT22;58851;42.984;20.336;2023-02-01T02:50:50;0.30;6451.20
55331;DHT22;58851;42.984;20.336;2023-02-01T02:56:26;0.40;6451.20
55331;DHT22;58851;42.984;20.336;2023-02-01T02:59:13;0.40;6451.20
55331;DHT22;58851;42.984;20.336;2023-02-01T03:01:58;0.40;6451.20
55331;DHT22;58851;42.984;20.336;2023-02-01T03:04:42;0.40;6451.20
55331;DHT22;58851;42.984;20.336;2023-02-01T03:10:42;0.50;6451.20
55331;DHT22;58851;42.984;20.336;2023-02-01T03:18:33;0.50;6451.20
55331;DHT22;58851;42.984;20.336;2023-02-01T03:21:06;0.40;6451.20
55331;DHT22;58851;42.984;20.336;2023-02-01T03:23:34;0.40;6451.20
55331;DHT22;58851;42.984;20.336;2023-02-01T03:26:02;0.30;6451.20
55331;DHT22;58851;42.984;20.336;2023-02-01T03:28:31;0.30;6451.20
55331;DHT22;58851;42.984;20.336;2023-02-01T03:30:59;0.30;6451.20
55331;DHT22;58851;42.984;20.336;2023-02-01T03:33:26;0.20;6451.20
55331;DHT22;58851;42.984;20.336;2023-02-01T03:39:15;0.20;6451.20
55331;DHT22;58851;42.984;20.336;2023-02-01T03:41:55;0.10;6451.20
55331;DHT22;58851;42.984;20.336;2023-02-01T03:44:30;0.00;6451.20
55331;DHT22;58851;42.984;20.336;2023-02-01T03:49:33;13.10;6451.20
55331;DHT22;58851;42.984;20.336;2023-02-01T03:52:00;13.30;6451.20
55331;DHT22;58851;42.984;20.336;2023-02-01T03:54:27;13.30;6451.20
55331;DHT22;58851;42.984;20.336;2023-02-01T03:56:56;13.30;6451.20
55331;DHT22;58851;42.984;20.336;2023-02-01T03:59:23;13.30;6451.20
55331;DHT22;58851;42.984;20.336;2023-02-01T04:01:49;13.30;6451.20
55331;DHT22;58851;42.984;20.336;2023-02-01T04:04:16;13.40;6451.20
55331;DHT22;58851;42.984;20.336;2023-02-01T04:06:49;13.50;6451.20
55331;DHT22;58851;42.984;20.336;2023-02-01T04:09:15;13.60;6451.20
55331;DHT22;58851;42.984;20.336;2023-02-01T04:11:41;13.60;6451.20
55331;DHT22;58851;42.984;20.336;2023-02-01T04:14:07;13.60;6451.20
55331;DHT22;58851;42.984;20.336;2023-02-01T04:16:33;13.60;6451.20
55331;DHT22;58851;42.984;20.336;2023-02-01T04:18:59;13.60;6451.20
55331;DHT22;58851;42.984;20.336;2023-02-01T04:21:26;13.50;6451.20
55331;DHT22;58851;42.984;20.336;2023-02-01T04:23:52;13.60;6451.20
55331;DHT22;58851;42.984;20.336;2023-02-01T04:26:18;13.70;6451.20
55331;DHT22;58851;42.984;20.336;2023-02-01T04:28:45;38.40;6451.20
55331;DHT22;58851;42.984;20.336;2023-02-01T04:31:16;38.60;6451.20
55331;DHT22;58851;42.984;20.336;2023-02-01T04:33:43;38.50;6451.20
55331;DHT22;58851;42.984;20.336;2023-02-01T04:36:09;38.40;6451.20
55331;DHT22;58851;42.984;20.336;2023-02-01T04:38:35;38.40;6451.20
55331;DHT22;58851;42.984;20.336;2023-02-01T04:41:01;38.40;6451.20
55331;DHT22;58851;42.984;20.336;2023-02-01T04:43:26;38.40;6451.20
55331;DHT22;58851;42.984;20.336;2023-02-01T04:45:52;38.60;6451.20
55331;DHT22;58851;42.984;20.336;2023-02-01T04:48:20;38.70;6451.20
55331;DHT22;58851;42.984;20.336;2023-02-01T04:50:47;38.80;6451.20
55331;DHT22;58851;42.984;20.336;2023-02-01T04:53:16;38.80;6451.20
55331;DHT22;58851;42.984;20.336;2023-02-01T04:55:43;38.70;6451.20
55331;DHT22;58851;42.984;20.336;2023-02-01T04:58:09;38.80;6451.20
55331;DHT22;58851;42.984;20.336;2023-02-01T05:00:35;38.70;6451.20
55331;DHT22;58851;42.984;20.336;2023-02-01T05:03:01;38.80;6451.20
55331;DHT22;58851;42.984;20.336;2023-02-01T05:05:27;38.70;6451.20
55331;DHT22;58851;42.984;20.336;2023-02-01T05:07:53;38.80;6451.20
55331;DHT22;58851;42.984;20.336;2023-02-01T05:10:19;38.80;6451.20
55331;DHT22;58851;42.984;20.336;2023-02-01T05:12:45;38.70;6451.20
55331;DHT22;58851;42.984;20.336;2023-02-01T05:15:30;38.70;6451.20
55331;DHT22;58851;42.984;20.336;2023-02-01T05:17:56;38.60;6451.20
55331;DHT22;58851;42.984;20.336;2023-02-01T05:20:21;38.60;6451.20
55331;DHT22;58851;42.984;20.336;2023-02-01T05:22:47;38.50;6451.20
55331;DHT22;58851;42.984;20.336;2023-02-01T05:25:13;38.60;6451.20
55331;DHT22;58851;42.984;20.336;2023-02-01T05:27:39;38.60;6451.20
55331;DHT22;58851;42.984;20.336;2023-02-01T05:30:05;38.70;6451.20
55331;DHT22;58851;42.984;20.336;2023-02-01T05:32:31;38.70;6451.20
55331;DHT22;58851;42.984;20.336;2023-02-01T05:34:57;38.90;6451.20
55331;DHT22;58851;42.984;20.336;2023-02-01T05:37:23;39.00;6451.20
55331;DHT22;58851;42.984;20.336;2023-02-01T05:39:49;39.10;6451.20
55331;DHT22;58851;42.984;20.336;2023-02-01T05:42:14;39.00;6451.20
55331;DHT22;58851;42.984;20.336;2023-02-01T05:44:40;38.90;6451.20
55331;DHT22;58851;42.984;20.336;2023-02-01T05:47:07;39.00;6451.20
55331;DHT22;58851;42.984;20.336;2023-02-01T05:49:33;39.10;6451.20
55331;DHT22;58851;42.984;20.336;2023-02-01T05:51:58;39.20;6451.20
55331;DHT22;58851;42.984;20.336;2023-02-01T05:54:24;39.30;6451.20
55331;DHT22;58851;42.984;20.336;2023-02-01T05:56:50;64.00;6451.20
55331;DHT22;58851;42.984;20.336;2023-02-01T05:59:16;64.20;6451.20
55331;DHT22;58851;42.984;20.336;2023-02-01T06:01:41;64.10;6451.20
55331;DHT22;58851;42.984;20.336;2023-02-01T06:04:07;64.10;6451.20
55331;DHT22;58851;42.984;20.336;2023-02-01T06:06:33;64.10;6451.20
55331;DHT22;58851;42.984;20.336;2023-02-01T06:08:59;64.10;6451.20
55331;DHT22;58851;42.984;20.336;2023-02-01T06:11:26;64.10;6451.20
55331;DHT22;58851;42.984;20.336;2023-02-01T06:13:52;64.30;6451.20
55331;DHT22;58851;42.984;20.336;2023-02-01T06:16:18;64.30;6451.20
55331;DHT22;58851;42.984;20.336;2023-02-01T06:18:43;64.20;6451.20
55331;DHT22;58851;42.984;20.336;2023-02-01T06:21:09;64.30;6451.20
55331;DHT22;58851;42.984;20.336;2023-02-01T06:23:35;64.30;6451.20
55331;DHT22;58851;42.984;20.336;2023-02-01T06:26:06;64.20;6451.20
55331;DHT22;58851;42.984;20.336;2023-02-01T06:28:34;64.10;6451.20
55331;DHT22;58851;42.984;20.336;2023-02-01T06:31:06;64.00;6451.20
55331;DHT22;58851;42.984;20.336;2023-02-01T06:33:33;64.00;6451.20
55331;DHT22;58851;42.984;20.336;2023-02-01T06:36:01;39.30;6451.20
55331;DHT22;58851;42.984;20.336;2023-02-01T06:38:27;39.30;6451.20
55331;DHT22;58851;42.984;20.336;2023-02-01T06:40:55;39.30;6451.20
55331;DHT22;58851;42.984;20.336;2023-02-01T06:43:25;39.10;6451.20
55331;DHT22;58851;42.984;20.336;2023-02-01T06:45:51;38.90;6451.20
55331;DHT22;58851;42.984;20.336;2023-02-01T06:48:17;38.80;6451.20
55331;DHT22;58851;42.984;20.336;2023-02-01T06:50:43;38.90;6451.20
55331;DHT22;58851;42.984;20.336;2023-02-01T06:53:09;38.90;6451.20
55331;DHT22;58851;42.984;20.336;2023-02-01T06:55:34;38.80;6451.20
55331;DHT22;58851;42.984;20.336;2023-02-01T06:58:00;38.80;6451.20
55331;DHT22;58851;42.984;20.336;2023-02-01T07:00:28;38.70;6451.20
55331;DHT22;58851;42.984;20.336;2023-02-01T07:02:54;38.80;6451.20
55331;DHT22;58851;42.984;20.336;2023-02-01T07:05:20;38.90;6451.20
55331;DHT22;58851;42.984;20.336;2023-02-01T07:07:46;39.00;6451.20
55331;DHT22;58851;42.984;20.336;2023-02-01T07:10:12;38.90;6451.20
55331;DHT22;58851;42.984;20.336;2023-02-01T07:12:38;38.70;6451.20
55331;DHT22;58851;42.984;20.336;2023-02-01T07:15:05;38.80;6451.20
55331;DHT22;58851;42.984;20.336;2023-02-01T07:17:31;38.60;6451.20
55331;DHT22;58851;42.984;20.336;2023-02-01T07:19:57;13.70;6451.20
55331;DHT22;58851;42.984;20.336;2023-02-01T07:22:25;13.50;6451.20
55331;DHT22;58851;42.984;20.336;2023-02-01T07:24:51;13.40;486.40
55331;DHT22;58851;42.984;20.336;2023-02-01T07:27:17;13.20;384.00
55331;DHT22;58851;42.984;20.336;2023-02-01T07:29:43;12.90;6502.40
55331;DHT22;58851;42.984;20.336;2023-02-01T07:32:08;0.00;6451.20
55331;DHT22;58851;42.984;20.336;2023-02-01T07:34:34;0.10;6451.20
55331;DHT22;58851;42.984;20.336;2023-02-01T07:37:00;0.20;6451.20
55331;DHT22;58851;42.984;20.336;2023-02-01T07:39:26;0.30;6451.20
55331;DHT22;58851;42.984;20.336;2023-02-01T07:41:54;0.30;6451.20
55331;DHT22;58851;42.984;20.336;2023-02-01T07:44:20;0.50;6451.20
55331;DHT22;58851;42.984;20.336;2023-02-01T07:46:49;0.70;6451.20
55331;DHT22;58851;42.984;20.336;2023-02-01T07:49:15;0.80;6451.20
55331;DHT22;58851;42.984;20.336;2023-02-01T07:51:43;25.70;6451.20
55331;DHT22;58851;42.984;20.336;2023-02-01T07:54:08;26.00;6451.20
55331;DHT22;58851;42.984;20.336;2023-02-01T07:56:34;26.00;6451.20
55331;DHT22;58851;42.984;20.336;2023-02-01T07:59:00;26.10;6451.20
55331;DHT22;58851;42.984;20.336;2023-02-01T08:01:27;26.20;6451.20
55331;DHT22;58851;42.984;20.336;2023-02-01T08:03:55;26.30;6451.20
55331;DHT22;58851;42.984;20.336;2023-02-01T08:06:23;51.20;6476.80
55331;DHT22;58851;42.984;20.336;2023-02-01T08:08:49;51.30;6476.80
55331;DHT22;58851;42.984;20.336;2023-02-01T08:11:16;51.40;6476.80
55331;DHT22;58851;42.984;20.336;2023-02-01T08:13:42;51.50;6476.80
55331;DHT22;58851;42.984;20.336;2023-02-01T08:16:10;51.60;6476.80
55331;DHT22;58851;42.984;20.336;2023-02-01T08:18:36;51.70;6476.80
55331;DHT22;58851;42.984;20.336;2023-02-01T08:21:14;51.80;6476.80
55331;DHT22;58851;42.984;20.336;2023-02-01T08:23:41;52.00;6476.80
55331;DHT22;58851;42.984;20.336;2023-02-01T08:28:49;52.00;6476.80
55331;DHT22;58851;42.984;20.336;2023-02-01T08:31:17;76.80;6476.80
55331;DHT22;58851;42.984;20.336;2023-02-01T08:33:47;76.80;6476.80
55331;DHT22;58851;42.984;20.336;2023-02-01T08:36:13;76.90;6476.80
55331;DHT22;58851;42.984;20.336;2023-02-01T08:38:39;77.20;6476.80
55331;DHT22;58851;42.984;20.336;2023-02-01T08:41:11;77.30;6476.80
55331;DHT22;58851;42.984;20.336;2023-02-01T08:43:38;77.40;6476.80
55331;DHT22;58851;42.984;20.336;2023-02-01T08:46:05;77.20;6476.80
55331;DHT22;58851;42.984;20.336;2023-02-01T08:48:31;77.20;6476.80
55331;DHT22;58851;42.984;20.336;2023-02-01T08:51:00;77.50;6476.80
55331;DHT22;58851;42.984;20.336;2023-02-01T08:53:26;77.60;6476.80
55331;DHT22;58851;42.984;20.336;2023-02-01T08:55:52;102.40;6476.80
55331;DHT22;58851;42.984;20.336;2023-02-01T08:58:17;102.60;6476.80
55331;DHT22;58851;42.984;20.336;2023-02-01T09:00:45;102.90;6476.80
55331;DHT22;58851;42.984;20.336;2023-02-01T09:03:11;102.70;6476.80
55331;DHT22;58851;42.984;20.336;2023-02-01T09:05:38;102.60;6476.80
55331;DHT22;58851;42.984;20.336;2023-02-01T09:08:04;102.60;6476.80
55331;DHT22;58851;42.984;20.336;2023-02-01T09:10:32;102.60;6476.80
55331;DHT22;58851;42.984;20.336;2023-02-01T09:12:58;102.90;6476.80
55331;DHT22;58851;42.984;20.336;2023-02-01T09:15:24;103.00;6476.80
55331;DHT22;58851;42.984;20.336;2023-02-01T09:17:50;103.30;6476.80
55331;DHT22;58851;42.984;20.336;2023-02-01T09:20:16;128.00;6502.40
55331;DHT22;58851;42.984;20.336;2023-02-01T09:22:42;128.10;6502.40
55331;DHT22;58851;42.984;20.336;2023-02-01T09:25:08;128.00;6502.40
55331;DHT22;58851;42.984;20.336;2023-02-01T09:27:34;128.20;6502.40
55331;DHT22;58851;42.984;20.336;2023-02-01T09:30:00;128.20;6502.40
55331;DHT22;58851;42.984;20.336;2023-02-01T09:32:26;128.40;6502.40
55331;DHT22;58851;42.984;20.336;2023-02-01T09:34:52;128.50;6502.40
55331;DHT22;58851;42.984;20.336;2023-02-01T09:37:19;128.60;6502.40
55331;DHT22;58851;42.984;20.336;2023-02-01T09:39:45;128.70;6502.40
55331;DHT22;58851;42.984;20.336;2023-02-01T09:42:21;128.70;6502.40
55331;DHT22;58851;42.984;20.336;2023-02-01T09:45:13;128.90;6502.40
55331;DHT22;58851;42.984;20.336;2023-02-01T09:47:47;153.60;6502.40
55331;DHT22;58851;42.984;20.336;2023-02-01T09:50:17;153.60;6502.40
55331;DHT22;58851;42.984;20.336;2023-02-01T09:53:40;153.70;6502.40
55331;DHT22;58851;42.984;20.336;2023-02-01T09:55:51;153.70;6502.40
55331;DHT22;58851;42.984;20.336;2023-02-01T10:01:01;153.90;6502.40
55331;DHT22;58851;42.984;20.336;2023-02-01T10:03:30;153.90;6502.40
55331;DHT22;58851;42.984;20.336;2023-02-01T10:17:04;154.30;6502.40
55331;DHT22;58851;42.984;20.336;2023-02-01T10:27:53;154.20;6502.40
55331;DHT22;58851;42.984;20.336;2023-02-01T10:30:22;154.40;6502.40
55331;DHT22;58851;42.984;20.336;2023-02-01T10:33:37;154.30;6502.40
55331;DHT22;58851;42.984;20.336;2023-02-01T10:35:36;154.30;6502.40
55331;DHT22;58851;42.984;20.336;2023-02-01T10:38:11;154.30;6502.40
55331;DHT22;58851;42.984;20.336;2023-02-01T10:40:42;154.30;6502.40
55331;DHT22;58851;42.984;20.336;2023-02-01T10:43:09;154.40;6502.40
55331;DHT22;58851;42.984;20.336;2023-02-01T10:45:37;154.40;6502.40
55331;DHT22;58851;42.984;20.336;2023-02-01T10:48:05;154.20;6502.40
55331;DHT22;58851;42.984;20.336;2023-02-01T10:53:38;179.20;6502.40
55331;DHT22;58851;42.984;20.336;2023-02-01T10:56:10;179.30;6502.40
55331;DHT22;58851;42.984;20.336;2023-02-01T10:58:44;179.30;6502.40
55331;DHT22;58851;42.984;20.336;2023-02-01T11:01:17;179.30;6502.40
55331;DHT22;58851;42.984;20.336;2023-02-01T11:06:29;179.30;6502.40
55331;DHT22;58851;42.984;20.336;2023-02-01T11:08:59;179.30;6502.40
55331;DHT22;58851;42.984;20.336;2023-02-01T11:11:25;179.30;6502.40
55331;DHT22;58851;42.984;20.336;2023-02-01T11:13:56;179.40;6502.40
55331;DHT22;58851;42.984;20.336;2023-02-01T11:16:38;179.50;6502.40
55331;DHT22;58851;42.984;20.336;2023-02-01T11:19:05;179.50;6502.40
55331;DHT22;58851;42.984;20.336;2023-02-01T11:21:32;179.50;6502.40
55331;DHT22;58851;42.984;20.336;2023-02-01T11:24:05;179.50;6502.40
55331;DHT22;58851;42.984;20.336;2023-02-01T11:26:39;179.60;6502.40
55331;DHT22;58851;42.984;20.336;2023-02-01T11:29:12;179.60;6502.40
55331;DHT22;58851;42.984;20.336;2023-02-01T11:31:39;179.80;6502.40
55331;DHT22;58851;42.984;20.336;2023-02-01T11:34:20;179.60;6502.40
55331;DHT22;58851;42.984;20.336;2023-02-01T11:36:47;179.60;6502.40
55331;DHT22;58851;42.984;20.336;2023-02-01T11:39:30;179.80;6502.40
55331;DHT22;58851;42.984;20.336;2023-02-01T11:47:22;179.70;6502.40
55331;DHT22;58851;42.984;20.336;2023-02-01T11:49:50;179.70;6502.40
55331;DHT22;58851;42.984;20.336;2023-02-01T11:58:03;204.90;6502.40
55331;DHT22;58851;42.984;20.336;2023-02-01T12:06:18;205.00;6502.40
55331;DHT22;58851;42.984;20.336;2023-02-01T12:17:59;205.30;6502.40
55331;DHT22;58851;42.984;20.336;2023-02-01T12:25:30;230.50;6502.40
55331;DHT22;58851;42.984;20.336;2023-02-01T12:38:53;230.80;6502.40
55331;DHT22;58851;42.984;20.336;2023-02-01T12:46:46;230.70;6502.40
55331;DHT22;58851;42.984;20.336;2023-02-01T12:51:47;230.80;6502.40
55331;DHT22;58851;42.984;20.336;2023-02-01T12:54:37;231.00;6502.40
55331;DHT22;58851;42.984;20.336;2023-02-01T12:57:11;231.20;6502.40
55331;DHT22;58851;42.984;20.336;2023-02-01T12:59:51;256.30;6502.40
55331;DHT22;58851;42.984;20.336;2023-02-01T13:10:36;256.50;6502.40
55331;DHT22;58851;42.984;20.336;2023-02-01T13:13:44;256.80;6502.40
55331;DHT22;58851;42.984;20.336;2023-02-01T13:16:27;256.70;6502.40
55331;DHT22;58851;42.984;20.336;2023-02-01T13:19:02;256.80;6502.40
55331;DHT22;58851;42.984;20.336;2023-02-01T13:21:34;256.80;6502.40
55331;DHT22;58851;42.984;20.336;2023-02-01T13:24:02;256.80;6502.40
55331;DHT22;58851;42.984;20.336;2023-02-01T13:26:29;281.70;6528.00
55331;DHT22;58851;42.984;20.336;2023-02-01T13:29:04;256.80;6502.40
55331;DHT22;58851;42.984;20.336;2023-02-01T13:40:30;281.60;6528.00
55331;DHT22;58851;42.984;20.336;2023-02-01T13:45:43;281.90;6528.00
55331;DHT22;58851;42.984;20.336;2023-02-01T13:48:28;282.30;6528.00
55331;DHT22;58851;42.984;20.336;2023-02-01T13:50:57;282.00;6528.00
55331;DHT22;58851;42.984;20.336;2023-02-01T13:53:30;282.20;6528.00
55331;DHT22;58851;42.984;20.336;2023-02-01T13:56:16;282.20;6528.00
55331;DHT22;58851;42.984;20.336;2023-02-01T13:58:45;282.40;6528.00
55331;DHT22;58851;42.984;20.336;2023-02-01T14:03:51;282.40;6528.00
55331;DHT22;58851;42.984;20.336;2023-02-01T14:11:53;282.30;6528.00
55331;DHT22;58851;42.984;20.336;2023-02-01T14:21:52;282.20;6528.00
55331;DHT22;58851;42.984;20.336;2023-02-01T14:24:34;281.80;6528.00
55331;DHT22;58851;42.984;20.336;2023-02-01T14:29:37;256.40;6502.40
55331;DHT22;58851;42.984;20.336;2023-02-01T14:40:00;231.00;6502.40
55331;DHT22;58851;42.984;20.336;2023-02-01T14:42:46;230.80;6502.40
55331;DHT22;58851;42.984;20.336;2023-02-01T14:50:32;205.60;6502.40
55331;DHT22;58851;42.984;20.336;2023-02-01T14:55:39;230.40;6502.40
55331;DHT22;58851;42.984;20.336;2023-02-01T14:58:31;205.70;6502.40
55331;DHT22;58851;42.984;20.336;2023-02-01T15:00:56;205.60;6502.40
55331;DHT22;58851;42.984;20.336;2023-02-01T15:09:43;205.60;6502.40
55331;DHT22;58851;42.984;20.336;2023-02-01T15:14:42;205.20;6502.40
55331;DHT22;58851;42.984;20.336;2023-02-01T15:17:28;205.10;6502.40
55331;DHT22;58851;42.984;20.336;2023-02-01T15:22:40;204.90;6502.40
55331;DHT22;58851;42.984;20.336;2023-02-01T15:25:19;205.00;6502.40
55331;DHT22;58851;42.984;20.336;2023-02-01T15:27:45;205.00;6502.40
55331;DHT22;58851;42.984;20.336;2023-02-01T15:30:29;204.90;6502.40
55331;DHT22;58851;42.984;20.336;2023-02-01T15:46:39;179.70;6502.40
55331;DHT22;58851;42.984;20.336;2023-02-01T15:49:11;179.70;6502.40
55331;DHT22;58851;42.984;20.336;2023-02-01T15:51:44;179.60;6502.40
55331;DHT22;58851;42.984;20.336;2023-02-01T15:54:19;179.50;6502.40
55331;DHT22;58851;42.984;20.336;2023-02-01T15:56:50;179.40;6502.40
55331;DHT22;58851;42.984;20.336;2023-02-01T15:59:24;179.30;6502.40
55331;DHT22;58851;42.984;20.336;2023-02-01T16:01:50;179.30;6502.40
55331;DHT22;58851;42.984;20.336;2023-02-01T16:04:27;179.20;6502.40
55331;DHT22;58851;42.984;20.336;2023-02-01T16:07:02;154.40;6502.40
55331;DHT22;58851;42.984;20.336;2023-02-01T16:10:02;154.30;6502.40
55331;DHT22;58851;42.984;20.336;2023-02-01T16:15:08;154.20;6502.40
55331;DHT22;58851;42.984;20.336;2023-02-01T16:17:34;154.10;6502.40
55331;DHT22;58851;42.984;20.336;2023-02-01T16:20:00;154.10;6502.40
55331;DHT22;58851;42.984;20.336;2023-02-01T16:22:26;153.80;6502.40
55331;DHT22;58851;42.984;20.336;2023-02-01T16:24:52;153.80;6502.40
55331;DHT22;58851;42.984;20.336;2023-02-01T16:27:18;153.70;6502.40
55331;DHT22;58851;42.984;20.336;2023-02-01T16:29:43;153.60;6502.40
55331;DHT22;58851;42.984;20.336;2023-02-01T16:32:20;128.90;6502.40
55331;DHT22;58851;42.984;20.336;2023-02-01T16:34:47;153.60;6502.40
55331;DHT22;58851;42.984;20.336;2023-02-01T16:37:15;128.90;6502.40
55331;DHT22;58851;42.984;20.336;2023-02-01T16:39:42;128.80;6502.40
55331;DHT22;58851;42.984;20.336;2023-02-01T16:42:12;128.90;6502.40
55331;DHT22;58851;42.984;20.336;2023-02-01T16:44:38;128.80;6502.40
55331;DHT22;58851;42.984;20.336;2023-02-01T16:47:12;128.80;6502.40
55331;DHT22;58851;42.984;20.336;2023-02-01T16:49:41;128.70;6502.40
55331;DHT22;58851;42.984;20.336;2023-02-01T16:52:16;128.70;6502.40
55331;DHT22;58851;42.984;20.336;2023-02-01T16:54:42;128.60;6502.40
55331;DHT22;58851;42.984;20.336;2023-02-01T16:57:14;128.50;6502.40
55331;DHT22;58851;42.984;20.336;2023-02-01T16:59:41;128.40;6502.40
55331;DHT22;58851;42.984;20.336;2023-02-01T17:02:15;128.40;6502.40
55331;DHT22;58851;42.984;20.336;2023-02-01T17:04:42;128.30;6502.40
55331;DHT22;58851;42.984;20.336;2023-02-01T17:07:26;128.20;6502.40
55331;DHT22;58851;42.984;20.336;2023-02-01T17:09:52;128.30;6502.40
55331;DHT22;58851;42.984;20.336;2023-02-01T17:12:27;128.20;6502.40
55331;DHT22;58851;42.984;20.336;2023-02-01T17:14:53;128.10;6502.40
55331;DHT22;58851;42.984;20.336;2023-02-01T17:17:20;128.10;6502.40
55331;DHT22;58851;42.984;20.336;2023-02-01T17:19:49;128.00;6502.40
55331;DHT22;58851;42.984;20.336;2023-02-01T17:22:22;128.00;6502.40
55331;DHT22;58851;42.984;20.336;2023-02-01T17:24:48;128.00;6502.40
55331;DHT22;58851;42.984;20.336;2023-02-01T17:27:16;128.00;6502.40
55331;DHT22;58851;42.984;20.336;2023-02-01T17:29:42;128.00;6502.40
55331;DHT22;58851;42.984;20.336;2023-02-01T17:32:19;128.00;6502.40
55331;DHT22;58851;42.984;20.336;2023-02-01T17:34:46;103.30;6476.80
55331;DHT22;58851;42.984;20.336;2023-02-01T17:37:29;103.30;6476.80
55331;DHT22;58851;42.984;20.336;2023-02-01T17:39:56;103.30;6476.80
55331;DHT22;58851;42.984;20.336;2023-02-01T17:42:27;103.10;6476.80
55331;DHT22;58851;42.984;20.336;2023-02-01T17:44:58;102.90;6476.80
55331;DHT22;58851;42.984;20.336;2023-02-01T17:47:25;102.90;6476.80
55331;DHT22;58851;42.984;20.336;2023-02-01T17:49:51;102.80;6476.80
55331;DHT22;58851;42.984;20.336;2023-02-01T17:52:22;102.80;6476.80
55331;DHT22;58851;42.984;20.336;2023-02-01T17:54:48;102.70;6476.80
55331;DHT22;58851;42.984;20.336;2023-02-01T17:57:18;102.70;6476.80
55331;DHT22;58851;42.984;20.336;2023-02-01T17:59:44;102.70;6476.80
55331;DHT22;58851;42.984;20.336;2023-02-01T18:02:23;102.60;6476.80
55331;DHT22;58851;42.984;20.336;2023-02-01T18:04:50;102.50;6476.80
55331;DHT22;58851;42.984;20.336;2023-02-01T18:07:16;102.40;6476.80
55331;DHT22;58851;42.984;20.336;2023-02-01T18:09:42;102.40;6476.80
55331;DHT22;58851;42.984;20.336;2023-02-01T18:12:22;102.40;6476.80
55331;DHT22;58851;42.984;20.336;2023-02-01T18:14:49;102.40;6476.80
55331;DHT22;58851;42.984;20.336;2023-02-01T18:17:15;77.70;6476.80
55331;DHT22;58851;42.984;20.336;2023-02-01T18:19:41;77.70;6476.80
55331;DHT22;58851;42.984;20.336;2023-02-01T18:22:17;77.60;6476.80
55331;DHT22;58851;42.984;20.336;2023-02-01T18:24:44;77.50;6476.80
55331;DHT22;58851;42.984;20.336;2023-02-01T18:27:09;77.50;6476.80